TAF AMD LOXT 230745Z 2306/2315 VRB02KT 0300 FG VV003
BECMG 2308/2310 08005KT 9999 FEW050
From batch tds/tafs/production/2022/9/23/h07_m59_tafs.cache.xml
Issued (9 days ago)
Forecasts
2306/2308 VRB02KT OVX

---
wx_string: FG
vert_vis_ft: '300'
fcst_time_to: '2022-09-23T08:00:00Z'
sky_condition:
- sky_cover: OVX
wind_speed_kt: '2'
fcst_time_from: '2022-09-23T06:00:00Z'
wind_dir_degrees: '0'
visibility_statute_mi: '0.19'

BECMG 2310/2315 8005KT P6SM FEW5000

---
wx_string: FG
vert_vis_ft: '300'
fcst_time_to: '2022-09-23T15:00:00Z'
sky_condition:
- sky_cover: FEW
  cloud_base_ft_agl: '5000'
time_becoming: '2022-09-23T10:00:00Z'
wind_speed_kt: '5'
fcst_time_from: '2022-09-23T08:00:00Z'
change_indicator: BECMG
wind_dir_degrees: '80'
visibility_statute_mi: '6.21'

talk